Time;durP1;ratioP1;P1;durP2;ratioP2;P2;SDS_P1;SDS_P2;PMS_P1;PMS_P2;Temp;Humidity;BMP_temperature;BMP_pressure;BME280_temperature;BME280_humidity;BME280_pressure;Samples;Min_cycle;Max_cycle;Signal;HPM_P1;HPM_P2
2022/10/30 00:01:33;;;;;;;7.90;4.70;;;20.70;61.80;21.80;100944.00;;;;5070458;28;20193;-47
2022/10/30 00:03:59;;;;;;;9.67;4.67;;;20.80;61.80;21.80;100946.00;;;;5070035;28;20178;-46
2022/10/30 00:06:24;;;;;;;13.10;4.63;;;20.70;62.00;21.80;100942.00;;;;5070263;28;20194;-48
2022/10/30 00:08:50;;;;;;;6.80;4.77;;;20.70;62.00;21.80;100945.00;;;;5070152;28;20594;-46
2022/10/30 00:11:16;;;;;;;6.60;4.60;;;20.80;62.10;21.80;100933.00;;;;5069972;28;20200;-48
2022/10/30 00:13:43;;;;;;;6.53;4.87;;;20.70;63.00;21.80;100942.00;;;;5069780;28;20201;-47
2022/10/30 00:16:09;;;;;;;5.10;4.33;;;20.70;62.10;21.80;100950.00;;;;5070109;28;20649;-47
2022/10/30 00:18:37;;;;;;;7.57;4.60;;;20.70;62.30;21.80;100935.00;;;;5071758;28;20221;-46
2022/10/30 00:21:10;;;;;;;9.90;4.70;;;20.70;62.30;21.80;100940.00;;;;5071843;28;20199;-46
2022/10/30 00:23:36;;;;;;;7.40;4.33;;;20.70;62.50;21.80;100943.00;;;;5069816;28;20182;-46
2022/10/30 00:26:05;;;;;;;7.00;4.60;;;20.70;62.60;21.80;100954.00;;;;5069886;28;20570;-46
2022/10/30 00:28:31;;;;;;;6.80;4.37;;;20.70;62.60;21.70;100953.00;;;;5069223;28;20173;-47
2022/10/30 00:31:03;;;;;;;9.53;5.07;;;20.60;62.70;21.80;100945.00;;;;5071382;28;20276;-46
2022/10/30 00:33:29;;;;;;;9.00;4.77;;;20.60;62.60;21.80;100948.00;;;;5070817;28;20651;-47
2022/10/30 00:35:55;;;;;;;7.53;4.63;;;20.60;62.70;21.70;100936.00;;;;5069916;28;20205;-48
2022/10/30 00:38:20;;;;;;;7.33;4.70;;;20.60;62.80;21.70;100940.00;;;;5070107;28;20166;-47
2022/10/30 00:40:46;;;;;;;6.73;4.70;;;20.60;62.80;21.70;100954.00;;;;5069028;28;20775;-46
2022/10/30 00:43:37;;;;;;;6.33;4.80;;;20.60;62.70;21.70;100943.00;;;;5069581;28;20591;-46
2022/10/30 00:46:34;;;;;;;10.93;4.70;;;20.50;62.70;21.70;100851.00;;;;5068230;28;20305;-47
2022/10/30 00:49:11;;;;;;;9.37;5.00;;;20.60;62.80;21.70;100949.00;;;;5051715;28;20161;-46
2022/10/30 00:51:37;;;;;;;9.57;5.10;;;20.50;62.70;21.70;100950.00;;;;5053227;28;20209;-46
2022/10/30 00:54:03;;;;;;;8.00;4.60;;;20.50;62.70;21.60;100956.00;;;;5067996;28;20176;-46
2022/10/30 00:56:29;;;;;;;7.63;4.67;;;20.50;62.70;21.60;100934.00;;;;5068057;28;20173;-48
2022/10/30 00:59:02;;;;;;;7.83;4.40;;;20.50;62.70;21.60;100859.00;;;;5072725;28;20184;-48
2022/10/30 01:01:28;;;;;;;7.43;4.63;;;20.50;62.70;21.60;100921.00;;;;5073929;28;20216;-47
2022/10/30 01:03:56;;;;;;;7.40;4.70;;;20.50;62.90;21.70;100936.00;;;;5075090;28;20181;-45
2022/10/30 01:06:22;;;;;;;11.03;4.73;;;20.50;62.70;21.60;100939.00;;;;5090944;28;20288;-46
2022/10/30 01:08:48;;;;;;;7.27;4.53;;;20.50;62.90;21.60;100941.00;;;;5055480;28;20272;-47
2022/10/30 01:11:13;;;;;;;7.10;4.53;;;20.50;62.70;21.60;100938.00;;;;5087970;28;20189;-46
2022/10/30 01:13:39;;;;;;;8.77;4.97;;;20.50;62.80;21.60;100937.00;;;;5089311;28;20169;-46
2022/10/30 01:16:23;;;;;;;7.30;4.77;;;20.50;62.80;21.60;100930.00;;;;5089389;28;20203;-47
2022/10/30 01:19:34;;;;;;;9.53;4.90;;;20.50;62.90;21.60;100945.00;;;;5089803;28;20161;-48
2022/10/30 01:22:18;;;;;;;6.63;4.97;;;20.50;62.90;21.60;100938.00;;;;5088678;28;20194;-46
2022/10/30 01:25:06;;;;;;;9.30;4.70;;;20.50;63.00;21.50;100930.00;;;;5087677;28;20161;-45
2022/10/30 01:27:54;;;;;;;6.20;4.57;;;20.50;63.00;21.60;100942.00;;;;5088222;28;20201;-47
2022/10/30 01:30:45;;;;;;;8.77;4.60;;;20.50;63.10;21.50;100949.00;;;;5087839;28;20666;-46
2022/10/30 01:33:38;;;;;;;8.00;4.77;;;20.50;63.10;21.50;100946.00;;;;5088600;28;20165;-45
2022/10/30 01:36:14;;;;;;;9.43;4.30;;;20.50;63.00;21.50;100947.00;;;;5089292;28;20194;-46
2022/10/30 01:39:13;;;;;;;7.17;4.63;;;20.50;63.00;21.50;100943.00;;;;5088056;28;20507;-46
2022/10/30 01:41:39;;;;;;;6.63;4.70;;;20.50;63.00;21.50;100932.00;;;;5063329;28;20518;-47
2022/10/30 01:44:16;;;;;;;7.53;4.63;;;20.50;62.70;21.50;100920.00;;;;5088529;28;20175;-48
2022/10/30 01:47:03;;;;;;;7.17;4.57;;;20.50;62.90;21.50;100939.00;;;;5087266;28;20192;-45
2022/10/30 01:49:40;;;;;;;7.80;4.50;;;20.50;63.10;21.50;100942.00;;;;5087515;28;20655;-49
2022/10/30 01:52:38;;;;;;;7.70;4.73;;;20.50;63.30;21.50;100940.00;;;;5087818;28;20183;-48
2022/10/30 01:55:34;;;;;;;8.03;4.60;;;20.40;63.10;21.50;100935.00;;;;5087073;28;20201;-47
2022/10/30 01:58:22;;;;;;;7.23;4.43;;;20.40;63.10;21.50;100942.00;;;;5087285;28;20163;-46
2022/10/30 02:00:51;;;;;;;6.10;4.50;;;20.40;63.20;21.50;100944.00;;;;5087309;28;20199;-45
2022/10/30 02:03:17;;;;;;;6.60;4.53;;;20.40;63.50;21.50;100955.00;;;;5087470;28;20208;-47
2022/10/30 02:05:50;;;;;;;8.57;4.77;;;20.40;63.30;21.50;100932.00;;;;5087414;28;20184;-48
2022/10/30 02:08:16;;;;;;;8.63;4.87;;;20.40;63.50;21.50;100950.00;;;;5087324;28;20247;-46
2022/10/30 02:10:43;;;;;;;6.90;4.50;;;20.40;63.50;21.50;100943.00;;;;5091534;28;20196;-46
2022/10/30 02:13:09;;;;;;;6.97;4.80;;;20.40;63.40;21.50;100937.00;;;;5091060;28;20262;-45
2022/10/30 02:15:35;;;;;;;8.67;4.70;;;20.40;63.40;21.50;100937.00;;;;5088372;28;20194;-46
2022/10/30 02:18:00;;;;;;;6.53;4.30;;;20.40;63.50;21.50;100941.00;;;;5089491;28;20165;-47
2022/10/30 02:20:26;;;;;;;7.30;4.53;;;20.40;63.50;21.50;100931.00;;;;5091014;28;20192;-46
2022/10/30 02:22:52;;;;;;;7.60;4.40;;;20.40;63.60;21.40;100940.00;;;;5087705;28;20634;-47
2022/10/30 02:25:18;;;;;;;6.70;4.60;;;20.30;63.20;21.50;100935.00;;;;5087204;28;20234;-46
2022/10/30 02:27:43;;;;;;;6.57;4.80;;;20.30;63.60;21.50;100924.00;;;;5088624;28;20715;-45
2022/10/30 02:30:09;;;;;;;7.70;4.43;;;20.30;63.40;21.50;100916.00;;;;5089530;28;20278;-48
2022/10/30 02:32:35;;;;;;;7.47;4.97;;;20.30;63.10;21.40;100920.00;;;;5088915;28;20749;-48
2022/10/30 02:35:01;;;;;;;8.63;4.70;;;20.30;62.90;21.40;100920.00;;;;5088491;28;20173;-47
2022/10/30 02:37:27;;;;;;;5.50;4.30;;;20.20;62.60;21.40;100908.00;;;;5088615;28;20637;-47
2022/10/30 02:39:52;;;;;;;10.70;5.00;;;20.30;62.70;21.40;100908.00;;;;5088212;28;20188;-46
2022/10/30 02:42:18;;;;;;;8.90;4.90;;;20.20;62.50;21.40;100902.00;;;;5088353;28;20172;-46
2022/10/30 02:44:44;;;;;;;7.87;4.73;;;20.20;62.60;21.40;100920.00;;;;5088349;28;20191;-47
2022/10/30 02:47:10;;;;;;;7.77;4.80;;;20.20;62.60;21.40;100854.00;;;;5088385;28;20283;-46
2022/10/30 02:49:35;;;;;;;8.07;4.93;;;20.20;62.80;21.40;100933.00;;;;5088218;28;20206;-47
2022/10/30 02:52:01;;;;;;;8.20;4.90;;;20.20;62.90;21.40;100927.00;;;;5087819;28;20224;-46
2022/10/30 02:54:27;;;;;;;6.93;4.80;;;20.20;63.10;21.30;100928.00;;;;5086528;28;20181;-46
2022/10/30 02:56:52;;;;;;;6.93;5.07;;;20.20;63.10;21.40;100921.00;;;;5087902;28;20187;-46
2022/10/30 02:59:19;;;;;;;7.23;4.63;;;20.20;63.10;21.30;100920.00;;;;5087692;28;20234;-46
2022/10/30 03:01:45;;;;;;;6.30;4.70;;;20.30;63.10;21.40;100926.00;;;;5091096;28;20543;-48
2022/10/30 03:04:10;;;;;;;8.80;4.50;;;20.20;63.90;21.30;100931.00;;;;5091599;28;20181;-46
2022/10/30 03:06:36;;;;;;;6.03;4.40;;;20.20;63.10;21.30;100933.00;;;;5091806;28;20192;-48
2022/10/30 03:09:02;;;;;;;8.27;4.30;;;20.20;63.10;21.30;100925.00;;;;5091458;28;20257;-47
2022/10/30 03:11:28;;;;;;;6.40;4.50;;;20.20;63.40;21.30;100933.00;;;;5092039;28;20199;-46
2022/10/30 03:13:54;;;;;;;7.40;4.77;;;20.20;63.30;21.30;100937.00;;;;5093080;28;20223;-45
2022/10/30 03:16:24;;;;;;;5.97;4.50;;;20.20;63.30;21.30;100937.00;;;;5093191;28;20192;-48
2022/10/30 03:18:50;;;;;;;5.43;4.63;;;20.20;63.40;21.30;100920.00;;;;5091948;28;20179;-46
2022/10/30 03:21:18;;;;;;;6.80;4.47;;;20.20;63.30;21.30;100920.00;;;;5091539;28;20206;-47
2022/10/30 03:23:44;;;;;;;6.17;4.53;;;20.20;63.30;21.30;100924.00;;;;5091175;28;20178;-46
2022/10/30 03:26:10;;;;;;;8.47;4.70;;;20.20;63.30;21.30;100921.00;;;;5091707;28;20226;-47
2022/10/30 03:28:36;;;;;;;5.60;4.77;;;20.20;63.50;21.30;100927.00;;;;5091777;28;20169;-46
2022/10/30 03:31:09;;;;;;;7.03;4.50;;;20.20;63.50;21.30;100940.00;;;;5091174;28;20198;-46
2022/10/30 03:33:35;;;;;;;6.17;4.50;;;20.20;63.50;21.30;100931.00;;;;5091785;28;20194;-47
2022/10/30 03:36:01;;;;;;;7.13;4.63;;;20.20;63.60;21.30;100937.00;;;;5091162;28;20261;-47
2022/10/30 03:38:27;;;;;;;7.70;4.40;;;20.30;63.60;21.30;100929.00;;;;5091177;28;20292;-46
2022/10/30 03:40:53;;;;;;;7.47;4.80;;;20.30;63.70;21.30;100926.00;;;;5090079;28;20195;-47
2022/10/30 03:43:19;;;;;;;9.63;4.87;;;20.30;63.60;21.30;100935.00;;;;5091219;28;20180;-46
2022/10/30 03:45:49;;;;;;;8.90;5.07;;;20.30;63.90;21.30;100932.00;;;;5091422;28;20187;-47
2022/10/30 03:48:16;;;;;;;9.03;4.80;;;20.30;64.00;21.30;100939.00;;;;5091302;28;20747;-49
2022/10/30 03:50:41;;;;;;;8.27;5.03;;;20.30;64.00;21.30;100941.00;;;;5091004;28;20192;-46
2022/10/30 03:53:07;;;;;;;7.53;4.43;;;20.30;64.10;21.30;100943.00;;;;5091579;28;20182;-48
2022/10/30 03:55:33;;;;;;;8.90;4.60;;;20.30;64.00;21.30;100939.00;;;;5090811;28;20172;-46
2022/10/30 03:57:58;;;;;;;12.60;5.10;;;20.30;64.00;21.30;100941.00;;;;5090925;28;20176;-47
2022/10/30 04:00:24;;;;;;;6.20;4.40;;;20.30;64.00;21.30;100948.00;;;;5097246;28;20200;-46
2022/10/30 04:02:51;;;;;;;6.07;4.80;;;20.30;64.10;21.30;100952.00;;;;5092473;28;20191;-46
2022/10/30 04:05:19;;;;;;;7.03;4.63;;;20.30;64.10;21.30;100945.00;;;;5090473;28;20180;-47
2022/10/30 04:07:45;;;;;;;5.87;4.50;;;20.30;64.10;21.30;100960.00;;;;5089437;28;20208;-45
2022/10/30 04:10:11;;;;;;;6.70;4.50;;;20.20;64.20;21.20;100954.00;;;;5090745;28;20221;-46
2022/10/30 04:12:37;;;;;;;8.40;4.70;;;20.20;64.20;21.20;100971.00;;;;5090620;28;20169;-48
2022/10/30 04:15:04;;;;;;;7.17;4.57;;;20.20;64.20;21.20;100956.00;;;;5088864;28;20547;-48
2022/10/30 04:17:30;;;;;;;6.80;4.67;;;20.20;64.20;21.20;100966.00;;;;5091191;28;20578;-48
2022/10/30 04:19:55;;;;;;;5.83;4.73;;;20.10;64.10;21.20;100962.00;;;;5090589;28;20271;-47
2022/10/30 04:22:21;;;;;;;6.87;4.90;;;20.10;64.20;21.20;100960.00;;;;5090433;28;20175;-46
2022/10/30 04:24:47;;;;;;;7.07;4.30;;;20.10;64.30;21.20;100962.00;;;;5092085;28;20167;-46
2022/10/30 04:27:14;;;;;;;6.00;4.50;;;20.10;64.30;21.20;100965.00;;;;5091820;28;20641;-50
2022/10/30 04:29:41;;;;;;;7.00;4.70;;;20.10;64.40;21.20;100973.00;;;;5089033;28;20200;-46
2022/10/30 04:32:08;;;;;;;7.20;4.73;;;20.10;64.50;21.10;100971.00;;;;5081555;28;20184;-46
2022/10/30 04:34:33;;;;;;;6.50;4.77;;;20.00;64.30;21.10;100967.00;;;;5069865;28;20180;-45
2022/10/30 04:36:59;;;;;;;4.93;4.33;;;20.00;64.40;21.10;100964.00;;;;5069658;28;20207;-48
2022/10/30 04:39:25;;;;;;;7.20;4.83;;;20.00;64.40;21.10;100963.00;;;;5069893;28;20254;-47
2022/10/30 04:41:51;;;;;;;8.63;4.63;;;20.00;64.40;21.10;100962.00;;;;5069699;28;20177;-46
2022/10/30 04:44:17;;;;;;;6.70;4.67;;;20.00;64.50;21.10;100969.00;;;;5069333;28;20210;-46
2022/10/30 04:46:42;;;;;;;7.93;5.13;;;20.00;64.30;21.10;100959.00;;;;5068989;28;20276;-47
2022/10/30 04:49:08;;;;;;;9.10;4.77;;;19.90;64.30;21.10;100960.00;;;;5069409;28;20229;-45
2022/10/30 04:51:34;;;;;;;8.97;4.53;;;19.90;64.30;21.10;100951.00;;;;5071511;28;20206;-46
2022/10/30 04:53:59;;;;;;;8.17;4.87;;;19.90;64.30;21.10;100958.00;;;;5069147;28;20169;-46
2022/10/30 04:56:25;;;;;;;10.10;5.10;;;19.90;64.30;21.10;100951.00;;;;5081238;28;20196;-46
2022/10/30 04:58:52;;;;;;;9.47;7.27;;;19.90;64.30;21.10;100952.00;;;;5071591;28;20186;-46
2022/10/30 05:01:18;;;;;;;15.97;10.60;;;19.90;64.50;21.00;100944.00;;;;5069904;28;20197;-48
2022/10/30 05:03:43;;;;;;;11.43;9.30;;;19.90;64.40;21.10;100952.00;;;;5070281;28;20233;-46
2022/10/30 05:06:25;;;;;;;11.73;10.00;;;19.90;64.40;21.00;100955.00;;;;5077735;28;20634;-46
2022/10/30 05:08:50;;;;;;;12.30;9.50;;;19.90;64.40;21.00;100956.00;;;;5053002;28;20155;-46
2022/10/30 05:11:16;;;;;;;13.43;9.70;;;19.80;64.40;21.00;100947.00;;;;5069381;28;20529;-46
2022/10/30 05:13:42;;;;;;;11.40;10.07;;;19.80;64.30;21.00;100953.00;;;;5067682;28;20254;-46
2022/10/30 05:16:08;;;;;;;10.07;9.07;;;19.80;64.30;21.00;100946.00;;;;5069272;28;20281;-47
2022/10/30 05:18:34;;;;;;;9.97;8.83;;;19.80;64.10;20.90;100941.00;;;;5069320;28;20581;-47
2022/10/30 05:20:59;;;;;;;10.83;8.97;;;19.90;64.20;20.90;100940.00;;;;5069560;28;20661;-46
2022/10/30 05:23:25;;;;;;;12.33;8.20;;;19.80;64.20;20.90;100943.00;;;;5068632;28;20174;-46
2022/10/30 05:25:51;;;;;;;11.27;8.60;;;19.80;64.30;20.90;100931.00;;;;5068858;28;20158;-46
2022/10/30 05:28:16;;;;;;;10.17;7.93;;;19.70;64.10;20.70;100934.00;;;;5069180;28;20549;-46
2022/10/30 05:30:42;;;;;;;8.70;7.73;;;19.80;64.10;20.90;100927.00;;;;5069148;28;20197;-46
2022/10/30 05:33:10;;;;;;;8.70;7.60;;;19.70;64.00;20.90;100929.00;;;;5069121;28;20174;-45
2022/10/30 05:35:36;;;;;;;10.60;7.10;;;19.80;64.10;20.80;100933.00;;;;5067426;28;20199;-47
2022/10/30 05:38:04;;;;;;;9.00;7.10;;;19.80;64.10;20.80;100923.00;;;;5069756;28;20165;-47
2022/10/30 05:40:30;;;;;;;7.17;6.47;;;19.80;63.90;20.80;100894.00;;;;5067531;28;20177;-46
2022/10/30 05:42:55;;;;;;;8.47;6.77;;;19.80;64.00;20.80;100926.00;;;;5068725;28;20175;-47
2022/10/30 05:45:21;;;;;;;8.20;6.50;;;19.70;64.10;20.80;100903.00;;;;5068419;28;20170;-46
2022/10/30 05:48:00;;;;;;;7.80;6.47;;;19.70;64.30;20.80;100909.00;;;;5069356;28;20227;-47
2022/10/30 05:50:26;;;;;;;9.63;6.57;;;19.70;64.30;20.70;100918.00;;;;5069453;28;20221;-47
2022/10/30 05:52:56;;;;;;;8.17;6.63;;;19.70;64.10;20.80;100901.00;;;;5069792;28;20768;-47
2022/10/30 05:55:21;;;;;;;8.27;6.10;;;19.70;64.10;20.70;100907.00;;;;5068934;28;20194;-47
2022/10/30 05:57:47;;;;;;;7.87;6.23;;;19.60;63.90;20.70;100903.00;;;;5069357;28;20210;-47
2022/10/30 06:00:13;;;;;;;11.83;6.47;;;19.70;64.10;20.70;100911.00;;;;5069519;28;20198;-47
2022/10/30 06:02:39;;;;;;;10.70;6.20;;;19.60;64.00;20.70;100916.00;;;;5069457;28;20612;-48
2022/10/30 06:05:05;;;;;;;8.47;6.10;;;19.70;64.00;20.70;100910.00;;;;5069384;28;20179;-47
2022/10/30 06:07:31;;;;;;;6.57;5.80;;;19.60;63.80;20.70;100908.00;;;;5068355;28;20293;-47
2022/10/30 06:09:57;;;;;;;7.70;5.90;;;19.60;63.90;20.70;100909.00;;;;5067761;28;20205;-46
2022/10/30 06:12:22;;;;;;;9.07;5.80;;;19.60;63.70;20.70;100900.00;;;;5068432;28;20169;-47
2022/10/30 06:14:48;;;;;;;8.87;5.80;;;19.60;63.70;20.60;100905.00;;;;5068356;28;20229;-46
2022/10/30 06:17:14;;;;;;;8.40;5.63;;;19.60;63.70;20.60;100904.00;;;;5067080;28;20182;-47
2022/10/30 06:19:40;;;;;;;7.03;5.53;;;19.50;63.80;20.60;100907.00;;;;5067832;28;20197;-46
2022/10/30 06:22:05;;;;;;;6.33;5.27;;;19.50;63.80;20.60;100913.00;;;;5070536;28;20177;-46
2022/10/30 06:24:31;;;;;;;9.80;5.13;;;19.60;63.90;20.60;100917.00;;;;5068504;28;20180;-46
2022/10/30 06:26:57;;;;;;;7.17;5.13;;;19.50;63.70;20.60;100922.00;;;;5069516;28;20209;-46
2022/10/30 06:29:23;;;;;;;6.07;4.70;;;19.50;63.60;20.60;100915.00;;;;5069891;28;20699;-45
2022/10/30 06:31:48;;;;;;;7.27;5.27;;;19.50;63.70;20.60;100915.00;;;;5069556;28;20188;-47
2022/10/30 06:34:14;;;;;;;6.60;5.20;;;19.50;63.80;20.60;100916.00;;;;5069321;28;20183;-46
2022/10/30 06:36:40;;;;;;;6.70;4.90;;;19.40;63.70;20.60;100913.00;;;;5073303;28;20208;-46
2022/10/30 06:39:05;;;;;;;10.10;5.10;;;19.40;63.80;20.60;100909.00;;;;5073281;28;20176;-46
2022/10/30 06:41:32;;;;;;;6.00;4.90;;;19.40;63.90;20.60;100922.00;;;;5073339;28;20201;-46
2022/10/30 06:43:58;;;;;;;5.27;4.73;;;19.40;63.80;20.60;100919.00;;;;5072510;28;20173;-46
2022/10/30 06:46:24;;;;;;;7.13;4.93;;;19.40;63.80;20.60;100934.00;;;;5073168;28;20193;-47
2022/10/30 06:48:49;;;;;;;7.23;4.97;;;19.40;63.80;20.50;100930.00;;;;5072868;28;20183;-46
2022/10/30 06:51:15;;;;;;;6.63;5.20;;;19.40;63.90;20.50;100929.00;;;;5073369;28;20185;-47
2022/10/30 06:53:41;;;;;;;7.30;4.97;;;19.30;63.80;20.50;100932.00;;;;5071362;28;20166;-47
2022/10/30 06:56:08;;;;;;;8.13;5.20;;;19.30;63.80;20.50;100946.00;;;;5072625;28;20174;-47
2022/10/30 06:58:37;;;;;;;9.60;5.40;;;19.30;63.80;20.50;100943.00;;;;5073519;28;20200;-49
2022/10/30 07:01:04;;;;;;;7.20;4.50;;;19.30;63.80;20.50;100956.00;;;;5075679;28;20192;-47
2022/10/30 07:03:30;;;;;;;5.33;4.67;;;19.30;63.90;20.50;100963.00;;;;5071338;28;20462;-45
2022/10/30 07:05:56;;;;;;;7.10;4.97;;;19.30;63.90;20.50;100957.00;;;;5072584;28;20174;-46
2022/10/30 07:08:22;;;;;;;5.97;5.37;;;19.30;64.00;20.50;100945.00;;;;5072553;28;20179;-46
2022/10/30 07:10:47;;;;;;;6.60;4.97;;;19.30;64.10;20.50;100949.00;;;;5072702;28;20190;-46
2022/10/30 07:13:13;;;;;;;8.63;5.10;;;19.30;63.90;20.50;100947.00;;;;5072561;28;20181;-46
2022/10/30 07:15:39;;;;;;;7.60;5.60;;;19.30;63.90;20.50;100938.00;;;;5072594;28;20187;-46
2022/10/30 07:18:05;;;;;;;7.63;5.07;;;19.20;63.80;20.40;100948.00;;;;5072285;28;20166;-46
2022/10/30 07:20:32;;;;;;;6.70;5.00;;;19.30;64.10;20.40;100947.00;;;;5072722;28;20202;-46
2022/10/30 07:22:58;;;;;;;7.03;5.00;;;19.20;64.10;20.40;100951.00;;;;5072296;28;20199;-47
2022/10/30 07:25:24;;;;;;;7.07;4.70;;;19.20;64.10;20.40;100950.00;;;;5071931;28;20662;-46
2022/10/30 07:27:51;;;;;;;8.23;4.67;;;19.20;64.10;20.40;100884.00;;;;5072355;28;20215;-45
2022/10/30 07:30:19;;;;;;;6.37;4.77;;;19.20;64.10;20.40;100948.00;;;;5074417;28;20196;-45
2022/10/30 07:32:45;;;;;;;7.70;4.90;;;19.20;64.20;20.40;100953.00;;;;5073151;28;20300;-47
2022/10/30 07:35:12;;;;;;;6.63;5.20;;;19.20;64.30;20.30;100955.00;;;;5071155;28;20344;-45
2022/10/30 07:37:38;;;;;;;5.60;4.30;;;19.20;64.50;20.30;100945.00;;;;5071719;28;20208;-47
2022/10/30 07:40:05;;;;;;;5.73;4.93;;;19.10;64.40;20.30;100947.00;;;;5072103;28;20238;-46
2022/10/30 07:42:31;;;;;;;6.03;4.70;;;19.20;64.40;20.30;100940.00;;;;5071853;28;20537;-46
2022/10/30 07:44:57;;;;;;;9.50;5.27;;;19.10;64.40;20.30;100939.00;;;;5071167;28;20180;-46
2022/10/30 07:47:23;;;;;;;7.23;5.17;;;19.20;64.60;20.30;100942.00;;;;5070848;28;20232;-46
2022/10/30 07:49:48;;;;;;;8.20;5.00;;;19.20;64.70;20.30;100943.00;;;;5071568;28;20186;-46
2022/10/30 07:52:14;;;;;;;8.57;5.20;;;19.10;64.70;20.20;100946.00;;;;5072171;28;20509;-46
2022/10/30 07:54:40;;;;;;;7.73;4.60;;;19.10;64.70;20.20;100942.00;;;;5070843;28;20182;-46
2022/10/30 07:57:05;;;;;;;7.30;4.90;;;19.10;64.70;20.20;100944.00;;;;5071398;28;20711;-46
2022/10/30 07:59:31;;;;;;;6.23;4.80;;;19.10;64.80;20.20;100935.00;;;;5071553;28;20170;-46
2022/10/30 08:01:59;;;;;;;8.13;5.13;;;19.10;65.10;20.20;100935.00;;;;5071964;28;20205;-46
2022/10/30 08:04:25;;;;;;;6.10;4.93;;;19.10;65.10;20.20;100946.00;;;;5071178;28;20178;-46
2022/10/30 08:06:52;;;;;;;8.10;5.33;;;19.10;65.20;20.20;100942.00;;;;5071389;28;20711;-46
2022/10/30 08:09:17;;;;;;;7.37;4.77;;;19.00;65.20;20.20;100948.00;;;;5071588;28;20224;-47
2022/10/30 08:11:43;;;;;;;7.50;5.07;;;19.10;65.40;20.20;100955.00;;;;5069975;28;20622;-46
2022/10/30 08:14:09;;;;;;;8.80;5.07;;;19.10;65.40;20.10;100948.00;;;;5068435;28;20174;-47
2022/10/30 08:16:34;;;;;;;8.03;4.90;;;19.10;65.40;20.20;100942.00;;;;5013948;28;20173;-46
2022/10/30 08:19:00;;;;;;;6.67;4.80;;;19.10;65.40;20.10;100943.00;;;;5092666;28;20231;-47
2022/10/30 08:21:26;;;;;;;9.67;5.00;;;19.10;65.50;20.10;100959.00;;;;5090264;28;20697;-48
2022/10/30 08:23:51;;;;;;;6.53;4.53;;;19.10;65.60;20.10;100942.00;;;;5091059;28;20174;-43
2022/10/30 08:26:17;;;;;;;5.67;4.50;;;19.10;65.70;20.10;100949.00;;;;5091277;28;20177;-48
2022/10/30 08:28:43;;;;;;;8.07;5.60;;;19.10;65.70;20.10;100942.00;;;;5091240;28;20657;-47
2022/10/30 08:31:09;;;;;;;6.60;5.00;;;19.00;65.60;20.10;100947.00;;;;5090403;28;20234;-47
2022/10/30 08:33:34;;;;;;;6.17;4.80;;;19.10;65.70;20.10;100948.00;;;;5017256;28;20172;-46
2022/10/30 08:36:01;;;;;;;10.47;5.43;;;19.20;65.60;20.10;100953.00;;;;5092338;28;20215;-46
2022/10/30 08:38:27;;;;;;;7.43;5.17;;;19.20;65.50;20.10;100943.00;;;;5092739;28;20187;-46
2022/10/30 08:40:53;;;;;;;7.67;5.40;;;19.20;65.50;20.10;100939.00;;;;5092786;28;20189;-46
2022/10/30 08:43:19;;;;;;;6.57;4.77;;;19.20;65.40;20.10;100936.00;;;;5093616;28;20157;-46
2022/10/30 08:45:45;;;;;;;6.97;4.67;;;19.20;65.20;20.10;100947.00;;;;5014447;28;20242;-46
2022/10/30 08:48:13;;;;;;;7.93;4.97;;;19.30;65.40;20.10;100943.00;;;;5073429;28;20197;-46
2022/10/30 08:50:38;;;;;;;10.90;5.10;;;19.30;65.30;20.10;100936.00;;;;5076162;28;20185;-46
2022/10/30 08:53:06;;;;;;;6.60;4.70;;;19.30;65.30;20.20;100924.00;;;;5091055;28;20173;-47
2022/10/30 08:55:32;;;;;;;7.87;4.80;;;19.30;65.30;20.20;100924.00;;;;5078808;28;20192;-45
2022/10/30 08:57:58;;;;;;;6.47;4.90;;;19.30;65.40;20.20;100921.00;;;;5090271;28;20189;-46
2022/10/30 09:00:24;;;;;;;7.40;4.30;;;19.30;65.40;20.20;100918.00;;;;5090996;28;20196;-46
2022/10/30 09:02:49;;;;;;;8.63;4.93;;;19.30;65.50;20.20;100920.00;;;;5091557;28;20184;-45
2022/10/30 09:05:15;;;;;;;7.37;5.13;;;19.30;65.50;20.20;100925.00;;;;5092194;28;20173;-46
2022/10/30 09:07:41;;;;;;;5.80;4.60;;;19.30;65.50;20.20;100921.00;;;;5091116;28;20193;-45
2022/10/30 09:10:07;;;;;;;5.80;4.60;;;19.40;65.60;20.20;100915.00;;;;5091467;28;20614;-46
2022/10/30 09:12:33;;;;;;;8.33;5.30;;;19.30;65.90;20.20;100911.00;;;;5090853;28;20169;-47
2022/10/30 09:14:58;;;;;;;7.27;4.50;;;19.40;65.90;20.20;100918.00;;;;5090067;28;20243;-48
2022/10/30 09:17:24;;;;;;;8.43;4.93;;;19.40;66.00;20.20;100906.00;;;;5090606;28;20180;-46
2022/10/30 09:19:50;;;;;;;8.53;5.20;;;19.30;65.90;20.20;100914.00;;;;5071896;28;20201;-46
2022/10/30 09:22:15;;;;;;;10.23;5.17;;;19.30;66.20;20.20;100912.00;;;;5070483;28;20276;-46
2022/10/30 09:24:41;;;;;;;8.33;5.17;;;19.30;66.40;20.20;100909.00;;;;5070392;28;20177;-47
2022/10/30 09:27:07;;;;;;;6.60;4.70;;;19.30;66.40;20.20;100908.00;;;;5070525;28;20303;-47
2022/10/30 09:29:34;;;;;;;8.30;4.70;;;19.30;66.50;20.20;100900.00;;;;5070407;28;20526;-46
2022/10/30 09:32:00;;;;;;;8.90;4.67;;;19.30;66.60;20.30;100913.00;;;;5070443;28;20472;-46
2022/10/30 09:34:26;;;;;;;9.93;5.13;;;19.30;66.70;20.30;100911.00;;;;5070084;28;20166;-47
2022/10/30 09:36:52;;;;;;;9.87;5.13;;;19.40;66.80;20.30;100896.00;;;;5070807;28;20200;-45
2022/10/30 09:39:17;;;;;;;7.87;4.97;;;19.40;66.90;20.30;100913.00;;;;5081474;28;20645;-46
2022/10/30 09:41:58;;;;;;;6.73;4.27;;;19.30;66.80;20.30;100897.00;;;;5091186;28;20225;-46
2022/10/30 09:44:42;;;;;;;10.57;5.20;;;19.40;67.00;20.30;100890.00;;;;5090116;28;20172;-46
2022/10/30 09:47:55;;;;;;;8.73;4.87;;;19.40;67.00;20.30;100890.00;;;;5090746;28;20586;-48
2022/10/30 09:50:25;;;;;;;9.17;5.17;;;19.40;67.10;20.30;100881.00;;;;5088784;28;20690;-46
2022/10/30 09:52:57;;;;;;;10.50;5.20;;;19.40;67.10;20.30;100892.00;;;;5071951;28;20173;-46
2022/10/30 09:55:53;;;;;;;10.13;4.90;;;19.40;67.00;20.30;100897.00;;;;5090323;28;20578;-46
2022/10/30 09:58:30;;;;;;;8.53;5.40;;;19.50;67.10;20.30;100898.00;;;;5091802;28;20165;-47
2022/10/30 10:01:26;;;;;;;8.77;4.80;;;19.50;67.00;20.30;100903.00;;;;5077873;28;20203;-46
2022/10/30 10:04:01;;;;;;;10.23;5.47;;;19.50;67.10;20.40;100899.00;;;;5089895;28;20226;-47
2022/10/30 10:06:27;;;;;;;9.57;5.07;;;19.50;67.20;20.40;100902.00;;;;5071955;28;20419;-46
2022/10/30 10:09:00;;;;;;;6.67;4.80;;;19.50;67.00;20.40;100902.00;;;;5071792;28;20587;-46
2022/10/30 10:11:37;;;;;;;9.40;5.10;;;19.60;67.10;20.40;100917.00;;;;5072299;28;20182;-46
2022/10/30 10:14:20;;;;;;;9.60;5.27;;;19.50;67.10;20.40;100910.00;;;;5088808;28;20158;-47
2022/10/30 10:16:53;;;;;;;9.70;5.30;;;19.60;67.40;20.40;100915.00;;;;5090928;28;20157;-46
2022/10/30 10:19:20;;;;;;;7.77;4.43;;;19.60;66.80;20.40;100906.00;;;;5072536;28;20191;-46
2022/10/30 10:21:56;;;;;;;8.63;5.00;;;19.60;66.80;20.40;100915.00;;;;5088784;28;20175;-47
2022/10/30 10:24:33;;;;;;;10.93;4.97;;;19.60;66.60;20.40;100890.00;;;;5090514;28;20181;-48
2022/10/30 10:27:11;;;;;;;9.23;5.20;;;19.70;66.60;20.40;100903.00;;;;5057171;28;20191;-46
2022/10/30 10:29:49;;;;;;;7.73;5.23;;;19.70;66.70;20.50;100895.00;;;;5073144;28;20652;-46
2022/10/30 10:32:27;;;;;;;9.30;5.43;;;19.60;66.70;20.40;100891.00;;;;5090125;28;20170;-46
2022/10/30 10:35:15;;;;;;;8.73;4.97;;;19.70;66.40;20.50;100894.00;;;;5088554;28;20522;-48
2022/10/30 10:38:11;;;;;;;11.43;5.13;;;19.70;66.60;20.50;100890.00;;;;5090266;28;20263;-47
2022/10/30 10:40:50;;;;;;;10.87;5.27;;;19.70;66.70;20.50;100884.00;;;;5090160;28;20647;-45
2022/10/30 10:43:22;;;;;;;10.47;5.10;;;19.70;67.30;20.50;100893.00;;;;5050082;28;20174;-45
2022/10/30 10:46:32;;;;;;;11.07;5.33;;;19.70;67.30;20.50;100897.00;;;;5068137;28;20162;-46
2022/10/30 10:49:16;;;;;;;9.13;5.70;;;19.70;67.30;20.50;100891.00;;;;5068472;28;20280;-47
2022/10/30 10:51:46;;;;;;;7.97;5.10;;;19.80;67.50;20.50;100885.00;;;;5069308;28;20185;-47
2022/10/30 10:54:41;;;;;;;8.30;5.17;;;19.80;67.20;20.60;100897.00;;;;5067998;28;20516;-46